createdAt,value
2023-05-10T00:04:32.879Z,0
2023-05-10T00:09:42.319Z,0
2023-05-10T00:14:51.912Z,0
2023-05-10T00:20:00.863Z,0
2023-05-10T00:25:11.261Z,0
2023-05-10T00:30:20.434Z,0
2023-05-10T00:35:29.958Z,0
2023-05-10T00:40:39.056Z,0
2023-05-10T00:45:48.312Z,0
2023-05-10T00:50:57.251Z,0
2023-05-10T00:56:06.845Z,0
2023-05-10T01:01:15.872Z,0
2023-05-10T01:06:24.843Z,0
2023-05-10T01:11:34.024Z,0
2023-05-10T01:16:42.975Z,0
2023-05-10T01:21:53.384Z,0
2023-05-10T01:27:02.572Z,0
2023-05-10T01:32:11.407Z,0
2023-05-10T01:37:20.412Z,0
2023-05-10T02:34:01.776Z,0
2023-05-10T02:39:11.056Z,0
2023-05-10T02:44:19.760Z,0
2023-05-10T02:49:28.885Z,0
2023-05-10T02:54:38.394Z,0
2023-05-10T02:59:47.698Z,0
2023-05-10T03:04:57.002Z,0
2023-05-10T03:10:06.003Z,0
2023-05-10T03:15:16.235Z,0
2023-05-10T03:22:29.934Z,1
2023-05-10T03:27:46.095Z,2
2023-05-10T03:33:01.963Z,5
2023-05-10T03:38:17.799Z,7
2023-05-10T03:43:34.679Z,10
2023-05-10T03:48:44.277Z,9
2023-05-10T03:54:00.420Z,11
2023-05-10T03:59:16.570Z,19
2023-05-10T04:04:32.871Z,37
2023-05-10T04:09:50.248Z,49
2023-05-10T04:15:06.519Z,82
2023-05-10T04:20:28.334Z,111
2023-05-10T04:25:43.800Z,106
2023-05-10T04:30:59.922Z,135
2023-05-10T04:36:15.542Z,149
2023-05-10T04:41:30.799Z,112
2023-05-10T04:46:47.382Z,62
2023-05-10T04:52:02.731Z,59
2023-05-10T04:57:19.951Z,81
2023-05-10T05:02:37.638Z,112
2023-05-10T05:07:56.742Z,274
2023-05-10T05:13:13.094Z,493
2023-05-10T05:18:30.122Z,451
2023-05-10T05:23:46.488Z,523
2023-05-10T05:29:03.758Z,270
2023-05-10T05:34:20.396Z,113
2023-05-10T05:39:36.407Z,212
2023-05-10T05:44:52.582Z,470
2023-05-10T05:50:10.080Z,785
2023-05-10T05:55:26.298Z,671
2023-05-10T06:00:43.608Z,673
2023-05-10T06:05:59.182Z,899
2023-05-10T06:11:16.639Z,308
2023-05-10T06:16:34.264Z,964
2023-05-10T06:21:54.123Z,1372
2023-05-10T06:27:08.438Z,1326
2023-05-10T06:32:23.479Z,1572
2023-05-10T06:37:40.070Z,1085
2023-05-10T06:42:57.546Z,810
2023-05-10T06:48:15.345Z,1086
2023-05-10T06:53:31.079Z,1381
2023-05-10T06:58:50.307Z,1502
2023-05-10T07:04:06.819Z,1351
2023-05-10T07:09:23.766Z,1782
2023-05-10T07:14:40.904Z,2465
2023-05-10T07:19:59.303Z,2690
2023-05-10T07:25:16.031Z,3119
2023-05-10T07:30:32.319Z,2409
2023-05-10T07:35:48.011Z,3539
2023-05-10T07:41:05.437Z,3283
2023-05-10T07:46:21.943Z,3002
2023-05-10T07:51:38.161Z,2529
2023-05-10T07:56:58.422Z,2576
2023-05-10T08:02:15.657Z,1873
2023-05-10T08:07:33.285Z,2522
2023-05-10T08:12:50.660Z,2662
2023-05-10T08:18:10.366Z,2536
2023-05-10T08:23:27.018Z,3347
2023-05-10T08:28:42.818Z,3081
2023-05-10T08:33:59.147Z,2799
2023-05-10T08:39:31.072Z,2483
2023-05-10T08:44:35.029Z,2952
2023-05-10T08:49:53.313Z,2163
2023-05-10T08:55:09.280Z,2211
2023-05-10T09:00:26.382Z,2005
2023-05-10T09:05:43.240Z,2205
2023-05-10T09:11:02.884Z,2475
2023-05-10T09:16:22.829Z,3201
2023-05-10T09:21:38.088Z,3455
2023-05-10T09:26:54.019Z,3613
2023-05-10T09:32:11.130Z,3510
2023-05-10T09:37:27.181Z,3851
2023-05-10T09:42:43.352Z,4433
2023-05-10T09:47:59.083Z,4513
2023-05-10T09:53:16.960Z,4328
2023-05-10T09:58:34.314Z,4198
2023-05-10T10:03:52.174Z,4171
2023-05-10T10:09:09.233Z,4287
2023-05-10T10:14:25.232Z,4395
2023-05-10T10:19:41.534Z,4448
2023-05-10T10:24:58.491Z,4780
2023-05-10T10:30:15.814Z,4305
2023-05-10T10:35:35.023Z,4128
2023-05-10T10:40:52.564Z,4862
2023-05-10T10:46:08.719Z,4741
2023-05-10T10:51:26.169Z,4129
2023-05-10T10:56:43.832Z,4101
2023-05-10T11:02:01.150Z,3213
2023-05-10T11:07:18.037Z,3492
2023-05-10T11:12:34.721Z,3689
2023-05-10T11:17:53.428Z,4415
2023-05-10T11:23:09.435Z,4788
2023-05-10T11:28:25.606Z,4394
2023-05-10T11:33:45.190Z,4229
2023-05-10T11:39:02.080Z,4787
2023-05-10T11:44:21.514Z,4809
2023-05-10T11:49:39.363Z,4966
2023-05-10T11:54:55.131Z,4296
2023-05-10T12:00:11.085Z,4468
2023-05-10T12:05:26.897Z,4715
2023-05-10T12:10:42.642Z,5651
2023-05-10T12:15:58.144Z,4846
2023-05-10T12:21:14.414Z,4678
2023-05-10T12:47:44.447Z,5154
2023-05-10T12:52:54.010Z,4508
2023-05-10T12:58:09.440Z,4606
2023-05-10T13:03:26.852Z,5681
2023-05-10T13:08:42.782Z,3914
2023-05-10T13:13:59.138Z,4435
2023-05-10T13:19:16.298Z,3916
2023-05-10T13:24:32.240Z,3535
2023-05-10T13:29:49.604Z,3319
2023-05-10T13:35:06.859Z,3446
2023-05-10T13:40:23.195Z,3941
2023-05-10T13:45:39.444Z,4140
2023-05-10T13:50:55.205Z,5484
2023-05-10T13:56:12.139Z,5739
2023-05-10T14:01:28.022Z,4157
2023-05-10T14:06:44.092Z,4911
2023-05-10T14:12:00.444Z,6461
2023-05-10T14:17:16.088Z,6254
2023-05-10T14:22:31.692Z,6615
2023-05-10T14:27:48.006Z,7355
2023-05-10T14:33:05.789Z,7640
2023-05-10T14:38:21.854Z,7666
2023-05-10T14:43:39.138Z,4836
2023-05-10T14:48:54.995Z,4962
2023-05-10T14:54:10.911Z,4737
2023-05-10T14:59:27.677Z,4825
2023-05-10T15:04:43.864Z,4654
2023-05-10T15:09:58.317Z,4326
2023-05-10T15:15:15.514Z,8007
2023-05-10T15:20:30.931Z,4456
2023-05-10T15:25:48.593Z,8345
2023-05-10T15:31:04.068Z,7458
2023-05-10T15:36:20.509Z,6922
2023-05-10T15:41:37.710Z,5063
2023-05-10T15:46:55.041Z,6540
2023-05-10T16:29:11.883Z,1568
2023-05-10T16:34:21.758Z,1284
2023-05-10T16:39:39.644Z,1056
2023-05-10T16:44:55.030Z,817
2023-05-10T16:50:11.401Z,507
2023-05-10T16:55:27.541Z,382
2023-05-10T17:00:44.185Z,361
2023-05-10T17:06:00.230Z,333
2023-05-10T17:11:16.404Z,322
2023-05-10T17:16:33.051Z,393
2023-05-10T17:21:48.983Z,473
2023-05-10T17:27:06.194Z,559
2023-05-10T17:32:22.837Z,420
2023-05-10T18:40:57.973Z,109
2023-05-10T18:46:13.947Z,113
2023-05-10T18:51:29.475Z,130
2023-05-10T18:56:46.324Z,90
2023-05-10T19:02:03.842Z,75
2023-05-10T19:07:21.110Z,38
2023-05-10T19:12:37.064Z,14
2023-05-10T19:17:53.239Z,5
2023-05-10T19:23:10.644Z,2
2023-05-10T19:28:25.983Z,1
2023-05-10T20:10:45.975Z,0
2023-05-10T20:15:55.661Z,0
2023-05-10T20:21:12.929Z,0
2023-05-10T20:26:29.283Z,0
2023-05-10T20:31:47.158Z,0
2023-05-10T20:37:03.278Z,0
2023-05-10T20:42:19.456Z,0
2023-05-10T20:47:36.629Z,0
2023-05-10T20:52:51.736Z,0
2023-05-10T20:58:10.966Z,0
2023-05-10T21:03:27.940Z,0
2023-05-10T21:08:44.993Z,0
2023-05-10T21:14:01.520Z,0
2023-05-10T21:19:18.244Z,0
2023-05-10T21:24:34.394Z,0
2023-05-10T21:29:52.409Z,0
2023-05-10T21:35:08.815Z,0
2023-05-10T21:40:25.365Z,0
2023-05-10T21:45:41.823Z,0
2023-05-10T21:50:58.325Z,0
2023-05-10T21:56:15.803Z,0
2023-05-10T22:01:31.268Z,0
2023-05-10T22:06:47.523Z,0
2023-05-10T22:12:03.832Z,0
2023-05-10T22:17:20.853Z,0
2023-05-10T22:22:38.242Z,0
2023-05-10T22:27:56.569Z,0
2023-05-10T22:33:12.544Z,0
2023-05-10T22:38:28.314Z,0
2023-05-10T22:43:45.647Z,0
2023-05-10T22:49:02.803Z,0
2023-05-10T22:54:18.990Z,0
2023-05-10T22:59:34.033Z,0
2023-05-10T23:04:51.121Z,0
2023-05-10T23:47:07.163Z,0
2023-05-10T23:52:16.922Z,0
2023-05-10T23:57:33.616Z,0
